ADDS METAR Data INFO
IDs: Format: Raw Decoded Include TAF

Data at: 1247 UTC 19 Oct 2017

KFRM 191156Z AUTO 20005KT 10SM CLR 02/00 A3008 RMK AO2 SLP195 T00220000 10078 20022 51007 FZRANO
KFRM 191056Z AUTO 21004KT 10SM CLR 03/01 A3007 RMK AO2 SLP191 T00280006
KFRM 190956Z AUTO 00000KT 10SM CLR 03/01 A3006 RMK AO2 SLP186 T00280006
KFRM 190856Z AUTO 20003KT 10SM CLR 03/01 A3006 RMK AO2 SLP183 T00330006 58003
KFRM 190756Z AUTO 00000KT 10SM CLR 05/01 A3007 RMK AO2 SLP188 T00500011
KFRM 190656Z AUTO 00000KT 10SM CLR 06/01 A3006 RMK AO2 SLP186 T00560006
KFRM 190556Z AUTO 00000KT 10SM CLR 08/M01 A3006 RMK AO2 SLP185 T00781006 10144 20067 402330067 51006
KFRM 190456Z AUTO 00000KT 10SM CLR 08/00 A3005 RMK AO2 SLP182 T00780000
KFRM 190356Z AUTO 33006KT 10SM CLR 08/01 A3006 RMK AO2 SLP185 T00830006
KFRM 190256Z AUTO 33005KT 10SM CLR 09/01 A3005 RMK AO2 SLP182 T00890006 51016 TSNO
KFRM 190156Z AUTO 31005KT 10SM CLR 11/01 A3003 RMK AO2 SLP177 T01110006
KFRM 190056Z AUTO 31006KT 10SM CLR 13/02 A3003 RMK AO2 SLP175 T01280022
KFRM 182356Z AUTO 32005KT 9SM CLR 14/02 A3000 RMK AO2 SLP165 T01440022 10233 20144 53028
KFRM 182256Z AUTO 34007KT 10SM CLR 20/02 A2997 RMK AO2 SLP153 T02000017
KFRM 182156Z AUTO 32012KT 10SM CLR 22/02 A2994 RMK AO2 SLP140 T02220017
KFRM 182056Z AUTO 34009G17KT 10SM CLR 23/01 A2991 RMK AO2 SLP132 T02280011 51006 TSNO
KFRM 181956Z AUTO 33015KT 10SM CLR 23/03 A2990 RMK AO2 SLP128 T02280028
KFRM 181856Z AUTO 32009KT 10SM CLR 20/07 A2991 RMK AO2 SLP131 T02000067
KFRM 181756Z AUTO 28016KT 10SM CLR 20/08 A2989 RMK AO2 SLP125 T02000078 10200 20072 53016
KFRM 181656Z AUTO 25011KT 10SM CLR 18/09 A2989 RMK AO2 SLP124 T01780094
KFRM 181556Z AUTO 18016KT 10SM CLR 16/09 A2983 RMK AO2 SLP105 T01560089
KFRM 181456Z AUTO 20015KT 10SM CLR 13/08 A2984 RMK AO2 SLP110 T01280078 55007
KFRM 181356Z AUTO 18014KT 10SM CLR 09/07 A2984 RMK AO2 SLP109 T00940072
KFRM 181256Z AUTO 18010KT 10SM CLR 08/06 A2984 RMK AO2 SLP111 T00780061
KFRM 181156Z AUTO 18010KT 10SM CLR 07/06 A2987 RMK AO2 SLP119 T00720061 10117 20072 58004
KFRM 181056Z AUTO 18009KT 10SM CLR 07/06 A2987 RMK AO2 SLP119 T00720061
KFRM 180956Z AUTO 19009KT 10SM CLR 07/06 A2987 RMK AO2 SLP119 T00720056
KFRM 180856Z AUTO 18006KT 10SM CLR 08/06 A2988 RMK AO2 SLP119 T00780061 58017
KFRM 180756Z AUTO 19006KT 10SM CLR 08/06 A2990 RMK AO2 SLP127 T00830061
KFRM 180656Z AUTO 20007KT 10SM CLR 09/07 A2991 RMK AO2 SLP131 T00940067
KFRM 180556Z AUTO 21007KT 10SM CLR 12/07 A2993 RMK AO2 SLP136 T01170072 10172 20117 402440067 58009
KFRM 180456Z AUTO 20009KT 10SM CLR 13/07 A2994 RMK AO2 SLP142 T01280072
KFRM 180256Z AUTO 20012KT 10SM CLR 15/07 A2995 RMK AO2 SLP148 T01500072 51001
KFRM 180156Z AUTO 19008KT 10SM CLR 13/07 A2995 RMK AO2 SLP149 T01280072
KFRM 180056Z AUTO 19008KT 6SM HZ CLR 13/07 A2996 RMK AO2 SLP153 T01330067